77NY weather

CLOSED Pendleton Airpark
Pendleton, New York, United States

Public forecast

Using degrees Fahrenheit for public forecast. Weather courtesy of forecast.io.

Closest aviation weather report (METAR) to Pendleton Airpark

Closest report is Niagara Falls International Airport, 7.5 nm (13.8 km) WNW. Retrieved 2019/10/16 18:53 UTC (11 minutes ago):

KIAG 161853Z 18006KT 9SM -RA FEW009 BKN024 OVC038 10/09 A2952 RMK AO2 SLP000 P0002 T01000089

Closest aviation forecast (TAF) to Pendleton Airpark

Closest forecast is Niagara Falls International Airport, 7.5 nm (13.8 km) WNW. Retrieved 2019/10/16 18:24 UTC (40 minutes ago):

TAF KIAG 161723Z 1618/1718 21012KT 6SM -RA BR OVC040 FM162000 24016G22KT P6SM VCSH OVC025 FM170300 26013G20KT P6SM VCSH OVC035 FM170600 29014G22KT P6SM -SHRA OVC015 FM171200 30019G30KT 6SM -SHRA BR OVC015 FM171500 30019G30KT 4SM SHRA BR OVC012